createdAt,value
2023-05-18T00:12:35.732Z,1011.7
2023-05-18T00:27:59.040Z,1011.8
2023-05-18T00:43:21.362Z,1011.9
2023-05-18T00:58:44.660Z,1012.1
2023-05-18T01:14:07.960Z,1012.2
2023-05-18T01:29:31.262Z,1012.3
2023-05-18T01:44:54.568Z,1012.3
2023-05-18T02:00:17.888Z,1012.3
2023-05-18T02:15:41.177Z,1012.4
2023-05-18T02:31:04.491Z,1012.3
2023-05-18T02:46:27.741Z,1012.4
2023-05-18T03:01:51.010Z,1012.5
2023-05-18T03:17:14.274Z,1012.6
2023-05-18T03:32:37.523Z,1012.6
2023-05-18T03:48:00.804Z,1012.7
2023-05-18T04:03:23.064Z,1012.7
2023-05-18T04:18:46.333Z,1012.9
2023-05-18T04:34:09.594Z,1013
2023-05-18T04:49:32.870Z,1013
2023-05-18T05:04:56.123Z,1013.1
2023-05-18T05:20:19.392Z,1013.1
2023-05-18T05:35:42.647Z,1013
2023-05-18T05:51:05.920Z,1013.1
2023-05-18T06:06:29.172Z,1013.1
2023-05-18T06:21:52.428Z,1013
2023-05-18T06:37:15.685Z,1013
2023-05-18T06:52:38.954Z,1013.1
2023-05-18T07:08:02.224Z,1013.1
2023-05-18T07:23:24.498Z,1013.1
2023-05-18T07:38:47.753Z,1013.1
2023-05-18T07:54:11.003Z,1013
2023-05-18T08:09:34.267Z,1013.1
2023-05-18T08:24:57.511Z,1013
2023-05-18T08:40:20.782Z,1013
2023-05-18T08:55:44.020Z,1012.9
2023-05-18T09:11:07.291Z,1012.9
2023-05-18T09:26:30.547Z,1012.7
2023-05-18T09:41:53.791Z,1012.7
2023-05-18T09:43:17.206Z,1012.8
2023-05-18T09:44:40.610Z,1012.8
2023-05-18T09:46:04.014Z,1012.7
2023-05-18T09:47:26.438Z,1012.7
2023-05-18T09:48:49.845Z,1012.7
2023-05-18T09:50:13.259Z,1012.7
2023-05-18T09:51:36.665Z,1012.7
2023-05-18T09:53:00.066Z,1012.7
2023-05-18T09:54:23.483Z,1012.8
2023-05-18T09:55:46.888Z,1012.7
2023-05-18T09:57:10.285Z,1012.8
2023-05-18T09:58:33.699Z,1012.8
2023-05-18T09:59:57.118Z,1012.8
2023-05-18T10:01:20.521Z,1012.8
2023-05-18T10:02:43.924Z,1012.8
2023-05-18T10:04:07.341Z,1012.8
2023-05-18T10:05:29.753Z,1012.7
2023-05-18T10:06:53.176Z,1012.8
2023-05-18T10:08:16.578Z,1012.7
2023-05-18T10:09:39.989Z,1012.7
2023-05-18T10:11:02.425Z,1012.6
2023-05-18T10:12:25.833Z,1012.6
2023-05-18T10:13:49.239Z,1012.7
2023-05-18T10:15:12.648Z,1012.6
2023-05-18T10:16:36.065Z,1012.6
2023-05-18T10:17:59.468Z,1012.6
2023-05-18T10:19:22.888Z,1012.6
2023-05-18T10:20:46.294Z,1012.6
2023-05-18T10:22:09.692Z,1012.5
2023-05-18T10:23:33.113Z,1012.5
2023-05-18T10:24:56.517Z,1012.5
2023-05-18T10:26:19.918Z,1012.5
2023-05-18T10:27:43.336Z,1012.5
2023-05-18T10:29:05.745Z,1012.4
2023-05-18T10:30:29.163Z,1012.4
2023-05-18T10:31:52.559Z,1012.4
2023-05-18T10:33:15.974Z,1012.4
2023-05-18T10:34:39.371Z,1012.4
2023-05-18T10:36:02.795Z,1012.3
2023-05-18T10:37:26.212Z,1012.3
2023-05-18T10:38:49.610Z,1012.2
2023-05-18T10:40:13.032Z,1012.2
2023-05-18T10:41:36.441Z,1012.3
2023-05-18T10:42:59.844Z,1012.3
2023-05-18T10:44:23.240Z,1012.3
2023-05-18T10:45:46.662Z,1012.3
2023-05-18T10:47:09.088Z,1012.3
2023-05-18T10:48:32.477Z,1012.3
2023-05-18T10:49:55.899Z,1012.3
2023-05-18T10:51:19.313Z,1012.3
2023-05-18T10:52:42.712Z,1012.3
2023-05-18T10:54:06.116Z,1012.3
2023-05-18T10:55:29.538Z,1012.3
2023-05-18T10:56:52.934Z,1012.3
2023-05-18T10:58:16.340Z,1012.3
2023-05-18T10:59:39.757Z,1012.2
2023-05-18T11:01:03.160Z,1012.2
2023-05-18T11:02:26.582Z,1012.2
2023-05-18T11:03:49.973Z,1012.2
2023-05-18T11:05:12.395Z,1012.1
2023-05-18T11:06:35.813Z,1012.1
2023-05-18T11:07:59.225Z,1012.2
2023-05-18T11:09:22.637Z,1012.1
2023-05-18T11:10:46.041Z,1012.2
2023-05-18T11:12:09.440Z,1012.2
2023-05-18T11:13:32.850Z,1012.2
2023-05-18T11:14:56.267Z,1012.2
2023-05-18T11:16:19.669Z,1012.1
2023-05-18T11:17:43.080Z,1012.1
2023-05-18T11:19:06.484Z,1012
2023-05-18T11:20:29.900Z,1012
2023-05-18T11:21:53.303Z,1012
2023-05-18T11:23:15.735Z,1012
2023-05-18T11:24:39.149Z,1012
2023-05-18T11:26:02.545Z,1012
2023-05-18T11:27:25.967Z,1011.9
2023-05-18T11:28:49.367Z,1011.9
2023-05-18T11:30:12.781Z,1011.9
2023-05-18T11:31:36.191Z,1011.9
2023-05-18T11:32:59.597Z,1012
2023-05-18T11:34:23.003Z,1011.8
2023-05-18T11:35:46.409Z,1011.9
2023-05-18T11:37:09.830Z,1011.9
2023-05-18T11:38:33.229Z,1011.9
2023-05-18T11:39:56.644Z,1011.9
2023-05-18T11:41:19.065Z,1011.9
2023-05-18T11:42:42.469Z,1011.9
2023-05-18T11:44:05.872Z,1011.8
2023-05-18T11:45:29.271Z,1011.8
2023-05-18T11:46:52.680Z,1011.8
2023-05-18T11:48:16.080Z,1011.8
2023-05-18T11:49:39.497Z,1011.9
2023-05-18T11:51:02.911Z,1011.9
2023-05-18T11:52:26.327Z,1011.9
2023-05-18T11:53:49.739Z,1011.9
2023-05-18T11:55:13.159Z,1011.9
2023-05-18T11:56:36.554Z,1011.9
2023-05-18T11:57:59.971Z,1011.9
2023-05-18T11:59:22.396Z,1012
2023-05-18T12:00:45.815Z,1011.9
2023-05-18T12:02:09.230Z,1011.9
2023-05-18T12:03:32.632Z,1011.9
2023-05-18T12:04:56.033Z,1012
2023-05-18T12:06:19.446Z,1011.9
2023-05-18T12:07:42.854Z,1011.9
2023-05-18T12:09:06.262Z,1011.9
2023-05-18T12:10:29.682Z,1011.9
2023-05-18T12:11:53.079Z,1011.9
2023-05-18T12:13:16.491Z,1011.9
2023-05-18T12:14:39.905Z,1011.8
2023-05-18T12:16:03.322Z,1011.9
2023-05-18T12:17:25.737Z,1011.8
2023-05-18T12:18:49.141Z,1011.9
2023-05-18T12:20:12.550Z,1011.9
2023-05-18T12:21:35.964Z,1011.8
2023-05-18T12:22:59.375Z,1011.8
2023-05-18T12:24:22.789Z,1011.8
2023-05-18T12:25:46.190Z,1011.7
2023-05-18T12:27:09.593Z,1011.8
2023-05-18T12:28:33.000Z,1011.8
2023-05-18T12:29:56.406Z,1011.9
2023-05-18T12:31:19.812Z,1011.8
2023-05-18T12:32:43.227Z,1011.8
2023-05-18T12:34:06.625Z,1011.7
2023-05-18T12:35:29.055Z,1011.7
2023-05-18T12:36:52.455Z,1011.7
2023-05-18T12:38:15.862Z,1011.7
2023-05-18T12:39:39.280Z,1011.6
2023-05-18T12:41:02.688Z,1011.6
2023-05-18T12:42:26.097Z,1011.6
2023-05-18T12:43:49.501Z,1011.6
2023-05-18T12:45:12.909Z,1011.6
2023-05-18T12:46:36.309Z,1011.6
2023-05-18T12:47:59.733Z,1011.7
2023-05-18T12:49:23.144Z,1011.7
2023-05-18T12:50:46.550Z,1011.7
2023-05-18T12:52:09.951Z,1011.7
2023-05-18T12:53:32.379Z,1011.7
2023-05-18T12:54:55.775Z,1011.7
2023-05-18T12:56:19.188Z,1011.6
2023-05-18T12:57:42.593Z,1011.6
2023-05-18T12:59:06.018Z,1011.6
2023-05-18T13:00:29.415Z,1011.5
2023-05-18T13:01:52.828Z,1011.5
2023-05-18T13:03:16.242Z,1011.4
2023-05-18T13:04:39.650Z,1011.4
2023-05-18T13:06:03.057Z,1011.4
2023-05-18T13:07:26.453Z,1011.4
2023-05-18T13:08:49.872Z,1011.4
2023-05-18T13:10:13.285Z,1011.4
2023-05-18T13:11:35.704Z,1011.4
2023-05-18T13:12:59.114Z,1011.4
2023-05-18T13:14:22.530Z,1011.4
2023-05-18T13:15:45.938Z,1011.5
2023-05-18T13:17:09.347Z,1011.4
2023-05-18T13:18:32.750Z,1011.5
2023-05-18T13:19:56.164Z,1011.5
2023-05-18T13:21:19.573Z,1011.6
2023-05-18T13:22:42.993Z,1011.5
2023-05-18T13:24:06.398Z,1011.4
2023-05-18T13:25:29.799Z,1011.5
2023-05-18T13:26:53.212Z,1011.4
2023-05-18T13:28:16.615Z,1011.4
2023-05-18T13:29:39.054Z,1011.4
2023-05-18T13:31:02.458Z,1011.4
2023-05-18T13:32:25.862Z,1011.4
2023-05-18T13:33:49.268Z,1011.5
2023-05-18T13:35:12.690Z,1011.5
2023-05-18T13:36:36.081Z,1011.5
2023-05-18T13:37:59.500Z,1011.5
2023-05-18T13:39:22.893Z,1011.4
2023-05-18T13:40:46.320Z,1011.4
2023-05-18T13:42:09.712Z,1011.3
2023-05-18T13:43:33.127Z,1011.3
2023-05-18T13:44:56.529Z,1011.2
2023-05-18T13:46:19.938Z,1011.3
2023-05-18T13:47:42.372Z,1011.3
2023-05-18T13:49:05.771Z,1011.2
2023-05-18T13:50:29.181Z,1011.3
2023-05-18T13:51:52.586Z,1011.3
2023-05-18T13:53:15.995Z,1011.2
2023-05-18T13:54:39.403Z,1011.3
2023-05-18T13:56:02.817Z,1011.2
2023-05-18T13:57:26.233Z,1011.3
2023-05-18T13:58:49.643Z,1011.3
2023-05-18T14:00:13.054Z,1011.3
2023-05-18T14:01:36.476Z,1011.3
2023-05-18T14:02:59.870Z,1011.3
2023-05-18T14:04:23.284Z,1011.3
2023-05-18T14:05:45.709Z,1011.2
2023-05-18T14:07:09.130Z,1011.2
2023-05-18T14:08:32.526Z,1011.2
2023-05-18T14:09:55.946Z,1011.2
2023-05-18T14:11:19.358Z,1011.1
2023-05-18T14:12:42.755Z,1011.1
2023-05-18T14:14:06.158Z,1011.1
2023-05-18T14:15:29.567Z,1011.2
2023-05-18T14:16:52.985Z,1011.2
2023-05-18T14:18:16.387Z,1011.2
2023-05-18T14:19:39.799Z,1011.2
2023-05-18T14:21:03.212Z,1011.2
2023-05-18T14:22:26.616Z,1011.2
2023-05-18T14:23:49.028Z,1011.2
2023-05-18T14:25:12.447Z,1011.2
2023-05-18T14:26:35.852Z,1011.3
2023-05-18T14:27:59.261Z,1011.3
2023-05-18T14:29:22.675Z,1011.3
2023-05-18T14:30:46.074Z,1011.4
2023-05-18T14:32:09.497Z,1011.3
2023-05-18T14:33:32.894Z,1011.3
2023-05-18T14:34:56.313Z,1011.3
2023-05-18T14:36:19.708Z,1011.3
2023-05-18T14:37:43.133Z,1011.2
2023-05-18T14:39:06.533Z,1011.2
2023-05-18T14:40:29.949Z,1011.2
2023-05-18T14:41:52.374Z,1011.2
2023-05-18T14:43:15.771Z,1011.1
2023-05-18T14:44:39.175Z,1011.1
2023-05-18T14:46:02.594Z,1011.1
2023-05-18T14:48:49.409Z,1011
2023-05-18T14:50:11.856Z,1011.1
2023-05-18T14:51:35.252Z,1011.1
2023-05-18T14:52:58.658Z,1011.1
2023-05-18T14:54:22.081Z,1011.1
2023-05-18T14:55:45.496Z,1011.1
2023-05-18T14:57:08.903Z,1011.2
2023-05-18T14:58:32.326Z,1011.2
2023-05-18T14:59:55.730Z,1011.2
2023-05-18T15:01:19.125Z,1011.2
2023-05-18T15:02:42.548Z,1011.3
2023-05-18T15:04:05.943Z,1011.3
2023-05-18T15:05:29.349Z,1011.2
2023-05-18T15:06:52.770Z,1011.3
2023-05-18T15:08:15.182Z,1011.2
2023-05-18T15:09:38.603Z,1011.1
2023-05-18T15:11:02.020Z,1011.1
2023-05-18T15:12:25.414Z,1011.1
2023-05-18T15:13:48.825Z,1011.2
2023-05-18T15:15:12.246Z,1011.1
2023-05-18T15:16:35.653Z,1011.2
2023-05-18T15:17:59.054Z,1011.2
2023-05-18T15:19:22.463Z,1011.2
2023-05-18T15:20:45.864Z,1011.2
2023-05-18T15:22:09.274Z,1011.3
2023-05-18T15:23:32.697Z,1011.3
2023-05-18T15:24:56.104Z,1011.3
2023-05-18T15:26:18.517Z,1011.3
2023-05-18T15:27:41.935Z,1011.2
2023-05-18T15:29:05.335Z,1011.2
2023-05-18T15:30:28.748Z,1011.2
2023-05-18T15:31:52.158Z,1011.2
2023-05-18T15:33:15.570Z,1011.2
2023-05-18T15:34:38.979Z,1011.1
2023-05-18T15:36:02.381Z,1011.1
2023-05-18T15:37:25.788Z,1011.1
2023-05-18T15:38:49.203Z,1011.1
2023-05-18T15:40:12.594Z,1011.1
2023-05-18T15:41:36.009Z,1011.1
2023-05-18T15:42:59.000Z,1011.1
2023-05-18T15:44:21.828Z,1011.1
2023-05-18T15:45:45.235Z,1011.1
2023-05-18T15:48:32.069Z,1011.1
2023-05-18T15:49:55.482Z,1011.1
2023-05-18T15:51:18.899Z,1011.1
2023-05-18T15:52:42.297Z,1011.1
2023-05-18T15:54:05.701Z,1011.2
2023-05-18T15:55:29.116Z,1011.2
2023-05-18T15:56:52.521Z,1011.1
2023-05-18T15:58:15.928Z,1011.1
2023-05-18T15:59:39.335Z,1011.2
2023-05-18T16:01:02.750Z,1011.1
2023-05-18T16:02:25.182Z,1011.1
2023-05-18T16:03:48.583Z,1011.1
2023-05-18T16:05:11.992Z,1011.1
2023-05-18T16:06:35.407Z,1011
2023-05-18T16:07:58.820Z,1011
2023-05-18T16:09:22.232Z,1011.1
2023-05-18T16:10:45.634Z,1011
2023-05-18T16:12:09.040Z,1011
2023-05-18T16:13:32.452Z,1011
2023-05-18T16:14:55.854Z,1011
2023-05-18T16:16:19.259Z,1011
2023-05-18T16:17:42.681Z,1011
2023-05-18T16:19:06.078Z,1010.9
2023-05-18T16:20:28.499Z,1010.9
2023-05-18T16:21:51.920Z,1010.9
2023-05-18T16:23:15.327Z,1011
2023-05-18T16:24:38.733Z,1011
2023-05-18T16:26:02.156Z,1011
2023-05-18T16:27:25.550Z,1011
2023-05-18T16:28:48.960Z,1011
2023-05-18T16:30:12.387Z,1011
2023-05-18T16:31:35.785Z,1011
2023-05-18T16:32:59.203Z,1011
2023-05-18T16:34:22.594Z,1011
2023-05-18T16:35:46.014Z,1011
2023-05-18T16:37:09.414Z,1011.1
2023-05-18T16:38:31.853Z,1011
2023-05-18T16:39:55.246Z,1011.1
2023-05-18T16:41:18.669Z,1011
2023-05-18T16:42:42.085Z,1011
2023-05-18T16:44:05.483Z,1011
2023-05-18T16:45:28.894Z,1011
2023-05-18T16:46:52.306Z,1011
2023-05-18T16:48:15.709Z,1011
2023-05-18T16:49:39.116Z,1011
2023-05-18T16:51:02.530Z,1011
2023-05-18T16:52:25.936Z,1011
2023-05-18T16:53:49.345Z,1011.1
2023-05-18T16:55:12.741Z,1011.1
2023-05-18T16:56:35.164Z,1011.1
2023-05-18T16:57:58.590Z,1011.1
2023-05-18T16:59:21.978Z,1011.1
2023-05-18T17:00:45.404Z,1011.1
2023-05-18T17:02:08.801Z,1011.1
2023-05-18T17:03:32.203Z,1011
2023-05-18T17:04:55.614Z,1011.1
2023-05-18T17:06:19.021Z,1011.1
2023-05-18T17:07:42.441Z,1011.1
2023-05-18T17:09:05.853Z,1011.1
2023-05-18T17:10:29.262Z,1011
2023-05-18T17:11:52.668Z,1011.1
2023-05-18T17:13:16.069Z,1011.1
2023-05-18T17:14:38.487Z,1011
2023-05-18T17:16:01.886Z,1011
2023-05-18T17:17:25.315Z,1011
2023-05-18T17:18:48.707Z,1011.1
2023-05-18T17:20:12.125Z,1011.1
2023-05-18T17:21:35.544Z,1011.1
2023-05-18T17:22:58.937Z,1011.1
2023-05-18T17:24:22.352Z,1011.1
2023-05-18T17:25:45.751Z,1011.1
2023-05-18T17:27:09.174Z,1011.2
2023-05-18T17:28:32.581Z,1011.1
2023-05-18T17:29:55.984Z,1011.1
2023-05-18T17:31:19.388Z,1011.1
2023-05-18T17:32:41.812Z,1011.1
2023-05-18T17:34:05.218Z,1011.2
2023-05-18T17:35:28.640Z,1011.2
2023-05-18T17:36:52.053Z,1011.2
2023-05-18T17:38:15.451Z,1011.1
2023-05-18T17:39:38.872Z,1011.2
2023-05-18T17:41:02.283Z,1011.2
2023-05-18T17:42:25.689Z,1011.1
2023-05-18T17:43:49.087Z,1011.1
2023-05-18T17:45:12.507Z,1011.1
2023-05-18T17:46:35.907Z,1011.1
2023-05-18T17:47:59.328Z,1011.1
2023-05-18T17:49:22.723Z,1011.1
2023-05-18T17:50:45.145Z,1011.1
2023-05-18T17:52:08.552Z,1011.1
2023-05-18T17:53:31.966Z,1011.1
2023-05-18T17:54:55.381Z,1011.1
2023-05-18T17:56:18.781Z,1011.1
2023-05-18T17:57:42.187Z,1011.2
2023-05-18T17:59:05.595Z,1011.2
2023-05-18T18:00:29.014Z,1011.2
2023-05-18T18:01:52.417Z,1011.2
2023-05-18T18:03:15.823Z,1011.2
2023-05-18T18:04:39.235Z,1011.2
2023-05-18T18:06:02.650Z,1011.2
2023-05-18T18:07:26.044Z,1011.2
2023-05-18T18:08:48.484Z,1011.2
2023-05-18T18:10:11.890Z,1011.2
2023-05-18T18:11:35.300Z,1011.2
2023-05-18T18:12:58.714Z,1011.2
2023-05-18T18:14:22.124Z,1011.2
2023-05-18T18:15:45.526Z,1011.3
2023-05-18T18:17:08.943Z,1011.3
2023-05-18T18:18:32.350Z,1011.3
2023-05-18T18:19:55.749Z,1011.2
2023-05-18T18:21:19.151Z,1011.2
2023-05-18T18:22:42.559Z,1011.2
2023-05-18T18:24:05.974Z,1011.2
2023-05-18T18:25:29.389Z,1011.3
2023-05-18T18:26:51.814Z,1011.3
2023-05-18T18:28:15.222Z,1011.3
2023-05-18T18:29:38.632Z,1011.3
2023-05-18T18:31:02.036Z,1011.3
2023-05-18T18:32:25.446Z,1011.3
2023-05-18T18:33:48.848Z,1011.2
2023-05-18T18:35:12.258Z,1011.3
2023-05-18T18:36:35.657Z,1011.4
2023-05-18T18:37:59.082Z,1011.3
2023-05-18T18:39:22.477Z,1011.4
2023-05-18T18:40:45.893Z,1011.3
2023-05-18T18:42:09.297Z,1011.3
2023-05-18T18:43:32.710Z,1011.3
2023-05-18T18:44:55.132Z,1011.4
2023-05-18T18:46:18.539Z,1011.4
2023-05-18T18:47:41.938Z,1011.4
2023-05-18T18:49:05.355Z,1011.4
2023-05-18T18:50:28.755Z,1011.4
2023-05-18T18:51:52.161Z,1011.4
2023-05-18T18:53:15.575Z,1011.4
2023-05-18T18:54:38.985Z,1011.4
2023-05-18T18:56:02.389Z,1011.4
2023-05-18T18:57:25.791Z,1011.4
2023-05-18T18:58:49.213Z,1011.4
2023-05-18T19:00:12.615Z,1011.5
2023-05-18T19:01:36.011Z,1011.5
2023-05-18T19:02:58.456Z,1011.5
2023-05-18T19:04:21.846Z,1011.5
2023-05-18T19:05:45.267Z,1011.5
2023-05-18T19:07:08.678Z,1011.5
2023-05-18T19:08:32.068Z,1011.5
2023-05-18T19:09:55.493Z,1011.5
2023-05-18T19:11:18.898Z,1011.5
2023-05-18T19:12:42.316Z,1011.5
2023-05-18T19:14:05.718Z,1011.5
2023-05-18T19:15:29.123Z,1011.5
2023-05-18T19:16:52.528Z,1011.6
2023-05-18T19:18:15.942Z,1011.5
2023-05-18T19:19:39.346Z,1011.5
2023-05-18T19:21:01.757Z,1011.5
2023-05-18T19:22:25.171Z,1011.6
2023-05-18T19:23:48.619Z,1011.6
2023-05-18T19:25:12.024Z,1011.6
2023-05-18T19:26:35.445Z,1011.6
2023-05-18T19:27:58.849Z,1011.6
2023-05-18T19:29:22.281Z,1011.6
2023-05-18T19:30:44.753Z,1011.6
2023-05-18T19:32:08.195Z,1011.7
2023-05-18T19:33:31.652Z,1011.7
2023-05-18T19:34:55.091Z,1011.6
2023-05-18T19:36:18.546Z,1011.7
2023-05-18T19:37:42.002Z,1011.7
2023-05-18T19:39:05.437Z,1011.7
2023-05-18T19:40:28.890Z,1011.7
2023-05-18T19:41:52.346Z,1011.7
2023-05-18T19:43:15.791Z,1011.8
2023-05-18T19:44:39.235Z,1011.8
2023-05-18T19:46:02.696Z,1011.8
2023-05-18T19:47:26.140Z,1011.8
2023-05-18T19:48:48.601Z,1011.8
2023-05-18T19:50:12.056Z,1011.8
2023-05-18T19:51:35.514Z,1011.8
2023-05-18T19:52:58.954Z,1011.8
2023-05-18T19:54:22.415Z,1011.8
2023-05-18T19:55:45.856Z,1011.8
2023-05-18T19:57:09.309Z,1011.8
2023-05-18T19:58:32.747Z,1011.8
2023-05-18T19:59:56.201Z,1011.8
2023-05-18T20:01:19.645Z,1011.7
2023-05-18T20:02:43.095Z,1011.7
2023-05-18T20:04:06.556Z,1011.8
2023-05-18T20:05:30.004Z,1011.7
2023-05-18T20:06:52.479Z,1011.8
2023-05-18T20:08:15.923Z,1011.7
2023-05-18T20:09:39.382Z,1011.7
2023-05-18T20:11:02.823Z,1011.7
2023-05-18T20:12:26.276Z,1011.7
2023-05-18T20:13:49.734Z,1011.8
2023-05-18T20:15:13.180Z,1011.8
2023-05-18T20:16:36.631Z,1011.7
2023-05-18T20:18:00.076Z,1011.7
2023-05-18T20:19:23.523Z,1011.8
2023-05-18T20:20:46.987Z,1011.8
2023-05-18T20:22:10.429Z,1011.8
2023-05-18T20:23:33.883Z,1011.8
2023-05-18T20:24:56.342Z,1011.8
2023-05-18T20:26:19.788Z,1011.8
2023-05-18T20:27:43.232Z,1011.9
2023-05-18T20:29:06.697Z,1011.9
2023-05-18T20:30:30.147Z,1011.8
2023-05-18T20:31:53.591Z,1011.8
2023-05-18T20:33:17.044Z,1011.8
2023-05-18T20:34:40.496Z,1011.8
2023-05-18T20:36:03.944Z,1011.8
2023-05-18T20:37:27.384Z,1011.8
2023-05-18T20:38:50.837Z,1011.8
2023-05-18T20:40:14.284Z,1011.9
2023-05-18T20:41:37.725Z,1011.8
2023-05-18T20:43:00.207Z,1011.8
2023-05-18T20:44:23.650Z,1011.8
2023-05-18T20:45:47.096Z,1011.8
2023-05-18T20:47:10.542Z,1011.8
2023-05-18T20:48:33.989Z,1011.8
2023-05-18T20:49:57.433Z,1011.8
2023-05-18T20:51:20.890Z,1011.8
2023-05-18T20:52:44.348Z,1011.8
2023-05-18T20:54:07.787Z,1011.8
2023-05-18T20:55:31.243Z,1011.8
2023-05-18T20:56:54.685Z,1011.8
2023-05-18T20:58:18.136Z,1011.7
2023-05-18T20:59:41.585Z,1011.8
2023-05-18T21:01:04.047Z,1011.8
2023-05-18T21:02:27.504Z,1011.8
2023-05-18T21:03:50.957Z,1011.8
2023-05-18T21:05:14.408Z,1011.8
2023-05-18T21:06:37.856Z,1011.7
2023-05-18T21:08:01.000Z,1011.7
2023-05-18T21:09:24.758Z,1011.7
2023-05-18T21:10:48.199Z,1011.7
2023-05-18T21:12:11.648Z,1011.7
2023-05-18T21:13:35.096Z,1011.7
2023-05-18T21:14:58.544Z,1011.7
2023-05-18T21:16:21.993Z,1011.7
2023-05-18T21:17:45.455Z,1011.7
2023-05-18T21:19:07.000Z,1011.7
2023-05-18T21:20:31.359Z,1011.7
2023-05-18T21:21:54.820Z,1011.7
2023-05-18T21:23:18.267Z,1011.7
2023-05-18T21:24:41.721Z,1011.7
2023-05-18T21:26:05.172Z,1011.7
2023-05-18T21:27:28.613Z,1011.6
2023-05-18T21:28:52.067Z,1011.6
2023-05-18T21:30:15.518Z,1011.7
2023-05-18T21:31:38.971Z,1011.7
2023-05-18T21:33:02.404Z,1011.6
2023-05-18T21:34:25.868Z,1011.6
2023-05-18T21:35:49.306Z,1011.7
2023-05-18T21:37:11.786Z,1011.6
2023-05-18T21:38:35.231Z,1011.7
2023-05-18T21:39:58.676Z,1011.7
2023-05-18T21:41:22.127Z,1011.6
2023-05-18T21:42:45.577Z,1011.6
2023-05-18T21:44:09.020Z,1011.7
2023-05-18T21:45:32.482Z,1011.7
2023-05-18T21:46:55.923Z,1011.6
2023-05-18T21:48:19.363Z,1011.6
2023-05-18T21:49:42.822Z,1011.6
2023-05-18T21:51:06.279Z,1011.7
2023-05-18T21:52:29.721Z,1011.7
2023-05-18T21:53:53.178Z,1011.6
2023-05-18T21:55:15.629Z,1011.7
2023-05-18T21:56:39.080Z,1011.7
2023-05-18T21:58:02.535Z,1011.7
2023-05-18T21:59:25.992Z,1011.7
2023-05-18T22:14:49.285Z,1011.6
2023-05-18T22:30:12.580Z,1011.5
2023-05-18T22:45:35.872Z,1011.5
2023-05-18T23:00:59.177Z,1011.6
2023-05-18T23:16:22.473Z,1011.6
2023-05-18T23:31:45.762Z,1011.5
2023-05-18T23:47:09.074Z,1011.4
